createdAt,value
2023-02-24T00:01:41.453Z,6.50
2023-02-24T00:04:35.786Z,6.13
2023-02-24T00:07:21.327Z,5.28
2023-02-24T00:10:09.389Z,4.15
2023-02-24T00:12:55.187Z,7.68
2023-02-24T00:15:40.615Z,9.57
2023-02-24T00:18:26.145Z,10.95
2023-02-24T00:21:15.888Z,7.03
2023-02-24T00:24:01.665Z,7.22
2023-02-24T00:26:55.421Z,5.15
2023-02-24T00:29:42.328Z,6.03
2023-02-24T00:32:28.387Z,4.63
2023-02-24T00:35:14.690Z,5.35
2023-02-24T00:37:59.736Z,4.63
2023-02-24T00:40:45.361Z,4.40
2023-02-24T00:43:30.498Z,3.10
2023-02-24T00:46:22.087Z,2.80
2023-02-24T00:49:12.760Z,2.30
2023-02-24T00:51:58.931Z,4.10
2023-02-24T00:54:45.816Z,2.50
2023-02-24T00:57:33.218Z,4.68
2023-02-24T01:00:21.948Z,2.97
2023-02-24T01:03:07.036Z,2.70
2023-02-24T01:05:52.994Z,2.85
2023-02-24T01:08:47.741Z,2.60
2023-02-24T01:11:54.050Z,2.78
2023-02-24T01:14:40.178Z,2.92
2023-02-24T01:17:25.778Z,4.75
2023-02-24T01:20:19.038Z,2.90
2023-02-24T01:23:04.429Z,2.85
2023-02-24T01:25:50.398Z,3.05
2023-02-24T01:28:37.494Z,3.00
2023-02-24T01:31:23.840Z,4.45
2023-02-24T01:34:12.850Z,3.50
2023-02-24T01:36:58.074Z,2.92
2023-02-24T01:39:48.011Z,3.60
2023-02-24T01:42:33.457Z,3.17
2023-02-24T01:45:24.758Z,4.22
2023-02-24T01:48:12.530Z,4.13
2023-02-24T01:50:58.437Z,3.55
2023-02-24T01:53:44.071Z,4.70
2023-02-24T01:56:31.162Z,7.78
2023-02-24T01:59:16.444Z,7.25
2023-02-24T02:02:06.826Z,6.10
2023-02-24T02:05:05.843Z,4.15
2023-02-24T02:07:52.479Z,2.88
2023-02-24T02:10:40.760Z,2.35
2023-02-24T02:13:28.277Z,2.75
2023-02-24T02:16:28.807Z,3.22
2023-02-24T02:19:42.780Z,2.78
2023-02-24T02:23:06.667Z,2.92
2023-02-24T02:25:58.017Z,2.97
2023-02-24T02:29:12.546Z,4.93
2023-02-24T02:32:10.725Z,4.72
2023-02-24T02:35:23.985Z,4.32
2023-02-24T02:38:34.599Z,2.88
2023-02-24T02:41:38.172Z,2.92
2023-02-24T02:44:35.705Z,3.92
2023-02-24T02:47:30.127Z,3.53
2023-02-24T02:50:28.391Z,4.18
2023-02-24T02:53:24.548Z,3.45
2023-02-24T02:56:16.602Z,3.95
2023-02-24T02:59:03.417Z,3.75
2023-02-24T03:01:50.841Z,2.45
2023-02-24T03:04:36.401Z,2.78
2023-02-24T03:07:31.627Z,4.07
2023-02-24T03:10:27.685Z,4.13
2023-02-24T03:13:14.243Z,3.42
2023-02-24T03:16:03.353Z,3.72
2023-02-24T03:19:03.746Z,2.67
2023-02-24T03:22:01.858Z,3.22
2023-02-24T03:24:47.416Z,3.25
2023-02-24T03:27:49.772Z,2.75
2023-02-24T03:30:46.060Z,2.95
2023-02-24T03:34:11.022Z,4.05
2023-02-24T03:36:57.390Z,4.78
2023-02-24T03:39:43.130Z,3.90
2023-02-24T03:45:23.043Z,2.63
2023-02-24T03:48:09.814Z,4.03
2023-02-24T03:50:55.843Z,3.45
2023-02-24T03:54:08.930Z,2.08
2023-02-24T03:57:24.421Z,2.47
2023-02-24T04:00:36.971Z,4.72
2023-02-24T04:03:37.398Z,4.75
2023-02-24T04:06:38.212Z,5.82
2023-02-24T04:09:57.115Z,3.65
2023-02-24T04:12:57.843Z,2.65
2023-02-24T04:15:50.616Z,3.88
2023-02-24T04:18:39.317Z,3.53
2023-02-24T04:21:30.473Z,2.15
2023-02-24T04:24:21.291Z,3.08
2023-02-24T04:27:11.350Z,2.58
2023-02-24T04:30:02.019Z,2.13
2023-02-24T04:32:47.556Z,3.10
2023-02-24T04:35:33.997Z,3.15
2023-02-24T04:38:20.264Z,5.10
2023-02-24T04:41:06.894Z,4.65
2023-02-24T04:43:52.421Z,2.70
2023-02-24T04:46:38.496Z,3.50
2023-02-24T04:49:23.724Z,3.38
2023-02-24T04:52:09.589Z,3.58
2023-02-24T04:54:55.065Z,3.72
2023-02-24T04:57:40.376Z,5.85
2023-02-24T05:00:27.217Z,4.47
2023-02-24T05:03:12.987Z,4.45
2023-02-24T05:06:00.224Z,3.92
2023-02-24T05:08:46.034Z,5.07
2023-02-24T05:11:34.980Z,3.47
2023-02-24T05:14:20.962Z,6.90
2023-02-24T05:17:06.907Z,5.70
2023-02-24T05:20:10.825Z,7.47
2023-02-24T05:22:56.746Z,6.60
2023-02-24T05:25:42.949Z,5.57
2023-02-24T05:28:31.612Z,7.07
2023-02-24T05:31:26.555Z,4.85
2023-02-24T05:34:17.188Z,6.68
2023-02-24T05:37:10.433Z,6.78
2023-02-24T05:40:01.694Z,7.15
2023-02-24T05:42:46.794Z,9.40
2023-02-24T05:45:33.259Z,5.82
2023-02-24T05:48:18.825Z,6.75
2023-02-24T05:51:08.128Z,10.70
2023-02-24T05:53:56.365Z,7.28
2023-02-24T05:56:44.920Z,8.18
2023-02-24T05:59:33.017Z,6.88
2023-02-24T06:02:27.499Z,5.68
2023-02-24T06:05:25.274Z,9.25
2023-02-24T06:08:13.345Z,7.32
2023-02-24T06:10:59.270Z,9.20
2023-02-24T06:13:49.193Z,10.50
2023-02-24T06:16:36.219Z,11.10
2023-02-24T06:19:21.286Z,6.10
2023-02-24T06:22:10.871Z,11.10
2023-02-24T06:24:56.727Z,8.77
2023-02-24T06:27:43.229Z,7.13
2023-02-24T06:30:28.995Z,9.48
2023-02-24T06:33:14.482Z,10.13
2023-02-24T06:36:00.775Z,9.68
2023-02-24T06:38:46.327Z,8.43
2023-02-24T06:41:32.907Z,13.80
2023-02-24T06:44:18.878Z,8.75
2023-02-24T06:47:06.474Z,10.23
2023-02-24T06:49:51.933Z,8.88
2023-02-24T06:52:37.486Z,11.45
2023-02-24T06:55:25.730Z,11.05
2023-02-24T06:58:17.252Z,6.30
2023-02-24T07:01:04.482Z,10.43
2023-02-24T07:04:02.067Z,9.45
2023-02-24T07:06:52.428Z,9.55
2023-02-24T07:09:37.871Z,11.50
2023-02-24T07:12:24.316Z,9.00
2023-02-24T07:15:09.753Z,8.52
2023-02-24T07:17:54.921Z,7.35
2023-02-24T07:20:43.710Z,5.40
2023-02-24T07:23:29.304Z,9.90
2023-02-24T07:26:17.050Z,9.00
2023-02-24T07:29:06.293Z,7.18
2023-02-24T07:31:55.016Z,8.05
2023-02-24T07:34:40.897Z,11.82
2023-02-24T07:37:31.477Z,7.53
2023-02-24T07:40:17.732Z,10.07
2023-02-24T07:43:06.379Z,7.25
2023-02-24T07:45:52.715Z,12.10
2023-02-24T07:48:39.928Z,10.98
2023-02-24T07:51:27.469Z,9.65
2023-02-24T07:54:15.690Z,10.57
2023-02-24T07:57:01.001Z,7.90
2023-02-24T07:59:47.207Z,9.70
2023-02-24T08:02:34.425Z,8.38
2023-02-24T08:05:19.693Z,11.15
2023-02-24T08:08:05.001Z,12.43
2023-02-24T08:10:50.405Z,10.43
2023-02-24T08:13:37.368Z,7.03
2023-02-24T08:16:23.397Z,8.32
2023-02-24T08:19:14.288Z,17.25
2023-02-24T08:22:19.359Z,11.43
2023-02-24T08:25:08.120Z,8.00
2023-02-24T08:28:12.762Z,11.18
2023-02-24T08:30:59.014Z,10.93
2023-02-24T08:33:44.284Z,11.45
2023-02-24T08:36:29.596Z,12.65
2023-02-24T08:39:15.009Z,10.85
2023-02-24T08:42:00.353Z,13.57
2023-02-24T08:44:46.119Z,17.00
2023-02-24T08:47:35.903Z,12.80
2023-02-24T08:50:21.627Z,12.95
2023-02-24T08:53:10.532Z,14.88
2023-02-24T08:55:55.549Z,9.23
2023-02-24T08:58:49.302Z,15.27
2023-02-24T09:01:37.558Z,12.52
2023-02-24T09:04:22.701Z,8.52
2023-02-24T09:07:15.296Z,13.18
2023-02-24T09:10:28.471Z,12.40
2023-02-24T09:13:13.769Z,11.50
2023-02-24T09:16:00.849Z,9.25
2023-02-24T09:19:06.550Z,9.70
2023-02-24T09:21:53.147Z,9.75
2023-02-24T09:24:38.407Z,8.35
2023-02-24T09:27:29.214Z,9.38
2023-02-24T09:30:33.203Z,8.57
2023-02-24T09:33:28.605Z,8.50
2023-02-24T09:36:19.939Z,10.00
2023-02-24T09:39:05.359Z,8.68
2023-02-24T09:42:08.030Z,11.80
2023-02-24T09:44:56.286Z,9.63
2023-02-24T09:47:57.107Z,9.07
2023-02-24T09:51:04.507Z,9.55
2023-02-24T09:53:53.387Z,9.52
2023-02-24T09:57:00.943Z,10.80
2023-02-24T10:00:25.730Z,9.57
2023-02-24T10:03:20.912Z,9.57
2023-02-24T10:06:14.772Z,12.70
2023-02-24T10:09:11.837Z,10.63
2023-02-24T10:12:04.482Z,8.45
2023-02-24T10:15:32.329Z,13.45
2023-02-24T10:18:30.036Z,10.73
2023-02-24T10:21:48.271Z,13.73
2023-02-24T10:24:49.220Z,12.07
2023-02-24T10:28:05.792Z,16.13
2023-02-24T10:31:10.918Z,13.25
2023-02-24T10:34:01.457Z,16.10
2023-02-24T10:36:50.269Z,14.55
2023-02-24T10:39:35.797Z,15.95
2023-02-24T10:42:31.480Z,19.02
2023-02-24T10:45:23.626Z,13.70
2023-02-24T10:48:11.610Z,13.57
2023-02-24T10:51:08.301Z,15.15
2023-02-24T10:54:25.090Z,11.75
2023-02-24T10:57:18.588Z,15.35
2023-02-24T11:00:35.292Z,14.02
2023-02-24T11:03:40.982Z,12.82
2023-02-24T11:06:52.737Z,20.48
2023-02-24T11:09:52.579Z,15.13
2023-02-24T11:13:09.903Z,15.15
2023-02-24T11:16:14.701Z,17.90
2023-02-24T11:19:00.226Z,20.42
2023-02-24T11:21:47.306Z,20.08
2023-02-24T11:24:32.860Z,21.55
2023-02-24T11:27:23.255Z,20.90
2023-02-24T11:30:20.952Z,23.42
2023-02-24T11:33:26.160Z,16.17
2023-02-24T11:36:39.085Z,22.02
2023-02-24T11:42:26.049Z,25.75
2023-02-24T11:45:33.653Z,24.65
2023-02-24T11:48:23.064Z,21.83
2023-02-24T11:51:19.994Z,27.65
2023-02-24T11:54:10.238Z,18.70
2023-02-24T11:56:59.334Z,27.27
2023-02-24T11:59:58.571Z,29.73
2023-02-24T12:02:59.279Z,24.20
2023-02-24T12:05:49.035Z,24.48
2023-02-24T12:08:41.536Z,26.40
2023-02-24T12:11:45.234Z,24.25
2023-02-24T12:14:38.208Z,24.75
2023-02-24T12:20:41.486Z,21.13
2023-02-24T12:23:37.631Z,25.75
2023-02-24T12:26:47.818Z,21.30
2023-02-24T12:29:50.765Z,17.05
2023-02-24T12:33:05.505Z,21.35
2023-02-24T12:36:09.528Z,18.80
2023-02-24T12:39:23.368Z,18.77
2023-02-24T12:42:34.739Z,16.15
2023-02-24T12:45:53.775Z,13.10
2023-02-24T12:49:36.717Z,18.35
2023-02-24T12:52:50.596Z,21.30
2023-02-24T12:55:41.246Z,11.80
2023-02-24T12:58:33.152Z,11.90
2023-02-24T13:01:29.061Z,9.77
2023-02-24T13:04:29.468Z,8.73
2023-02-24T13:08:03.814Z,10.55
2023-02-24T13:11:03.357Z,7.60
2023-02-24T13:14:27.512Z,11.50
2023-02-24T13:17:18.717Z,12.55
2023-02-24T13:20:14.330Z,10.43
2023-02-24T13:23:02.335Z,19.38
2023-02-24T13:25:52.776Z,20.75
2023-02-24T13:28:38.464Z,25.15
2023-02-24T13:31:26.206Z,14.50
2023-02-24T13:34:33.874Z,18.05
2023-02-24T13:37:34.423Z,17.77
2023-02-24T13:40:22.240Z,17.25
2023-02-24T13:43:27.823Z,25.55
2023-02-24T13:46:22.573Z,19.88
2023-02-24T13:49:27.151Z,21.80
2023-02-24T13:52:32.621Z,19.75
2023-02-24T13:55:45.723Z,17.73
2023-02-24T13:58:33.989Z,17.60
2023-02-24T14:01:21.611Z,21.17
2023-02-24T14:04:18.621Z,17.40
2023-02-24T14:07:09.675Z,20.00
2023-02-24T14:09:59.528Z,18.17
2023-02-24T14:12:46.562Z,19.08
2023-02-24T14:15:33.521Z,16.35
2023-02-24T14:18:25.533Z,11.98
2023-02-24T14:21:21.162Z,10.13
2023-02-24T14:24:13.397Z,7.05
2023-02-24T14:26:59.461Z,6.72
2023-02-24T14:29:44.780Z,9.70
2023-02-24T14:32:32.455Z,4.85
2023-02-24T14:35:26.093Z,8.02
2023-02-24T14:38:38.720Z,8.02
2023-02-24T14:41:27.465Z,9.15
2023-02-24T14:44:28.076Z,6.90
2023-02-24T14:47:15.747Z,7.22
2023-02-24T14:50:03.449Z,9.18
2023-02-24T14:52:53.645Z,6.18
2023-02-24T14:55:44.977Z,9.20
2023-02-24T14:58:38.729Z,7.20
2023-02-24T15:01:36.676Z,5.00
2023-02-24T15:04:43.763Z,5.85
2023-02-24T15:07:32.794Z,7.57
2023-02-24T15:10:23.081Z,7.88
2023-02-24T15:13:18.345Z,12.25
2023-02-24T15:16:14.398Z,9.10
2023-02-24T15:19:01.515Z,13.25
2023-02-24T15:21:47.223Z,8.43
2023-02-24T15:24:34.813Z,11.02
2023-02-24T15:27:26.879Z,16.58
2023-02-24T15:30:49.232Z,11.55
2023-02-24T15:33:43.553Z,9.83
2023-02-24T15:36:33.446Z,7.55
2023-02-24T15:39:23.479Z,6.40
2023-02-24T15:42:30.507Z,12.57
2023-02-24T15:45:32.013Z,10.75
2023-02-24T15:48:21.076Z,8.10
2023-02-24T15:51:06.285Z,8.23
2023-02-24T15:53:51.762Z,10.43
2023-02-24T15:56:37.587Z,8.00
2023-02-24T15:59:22.668Z,12.93
2023-02-24T16:02:18.194Z,15.60
2023-02-24T16:05:03.408Z,12.43
2023-02-24T16:07:49.567Z,15.98
2023-02-24T16:10:35.030Z,11.77
2023-02-24T16:13:23.881Z,8.07
2023-02-24T16:16:12.633Z,9.63
2023-02-24T16:18:58.233Z,13.38
2023-02-24T16:21:44.293Z,20.17
2023-02-24T16:24:29.987Z,15.27
2023-02-24T16:27:20.854Z,11.43
2023-02-24T16:30:07.850Z,20.17
2023-02-24T16:32:53.682Z,12.07
2023-02-24T16:35:42.143Z,12.93
2023-02-24T16:38:27.525Z,12.52
2023-02-24T16:41:13.309Z,18.08
2023-02-24T16:43:58.913Z,19.20
2023-02-24T16:46:45.192Z,15.25
2023-02-24T16:49:30.538Z,16.85
2023-02-24T16:52:19.080Z,14.18
2023-02-24T16:55:04.425Z,19.58
2023-02-24T16:57:49.921Z,12.10
2023-02-24T17:00:36.230Z,12.98
2023-02-24T17:03:44.407Z,13.55
2023-02-24T17:06:29.524Z,13.88
2023-02-24T17:09:15.706Z,20.50
2023-02-24T17:12:01.155Z,18.30
2023-02-24T17:14:46.675Z,14.93
2023-02-24T17:17:31.773Z,18.08
2023-02-24T17:20:19.359Z,16.20
2023-02-24T17:23:05.518Z,16.77
2023-02-24T17:25:54.861Z,19.77
2023-02-24T17:28:40.294Z,10.95
2023-02-24T17:31:28.412Z,10.55
2023-02-24T17:34:14.158Z,11.80
2023-02-24T17:36:59.607Z,17.58
2023-02-24T17:39:44.996Z,15.52
2023-02-24T17:42:30.404Z,15.52
2023-02-24T17:45:16.113Z,18.20
2023-02-24T17:48:01.794Z,14.68
2023-02-24T17:50:47.469Z,22.38
2023-02-24T17:53:33.003Z,20.83
2023-02-24T17:56:18.081Z,14.07
2023-02-24T17:59:03.509Z,13.77
2023-02-24T18:01:49.041Z,17.00
2023-02-24T18:04:34.519Z,20.70
2023-02-24T18:07:21.184Z,15.93
2023-02-24T18:10:07.379Z,19.10
2023-02-24T18:12:52.580Z,16.63
2023-02-24T18:15:39.065Z,18.33
2023-02-24T18:18:25.837Z,17.27
2023-02-24T18:21:11.307Z,19.63
2023-02-24T18:23:57.015Z,20.58
2023-02-24T18:26:42.174Z,23.55
2023-02-24T18:29:28.735Z,25.98
2023-02-24T18:32:13.914Z,15.35
2023-02-24T18:34:59.178Z,17.40
2023-02-24T18:37:44.651Z,15.10
2023-02-24T18:40:30.162Z,15.55
2023-02-24T18:43:15.634Z,20.00
2023-02-24T18:46:02.885Z,12.68
2023-02-24T18:48:50.371Z,13.80
2023-02-24T18:51:37.008Z,15.98
2023-02-24T18:54:22.206Z,18.42
2023-02-24T18:57:07.580Z,16.83
2023-02-24T18:59:52.991Z,13.75
2023-02-24T19:02:38.337Z,13.18
2023-02-24T19:05:24.911Z,12.05
2023-02-24T19:08:10.180Z,13.75
2023-02-24T19:10:55.450Z,15.25
2023-02-24T19:13:41.118Z,17.30
2023-02-24T19:16:26.657Z,11.85
2023-02-24T19:19:14.540Z,11.27
2023-02-24T19:22:00.185Z,10.70
2023-02-24T19:24:45.643Z,12.90
2023-02-24T19:27:31.018Z,14.07
2023-02-24T19:30:16.708Z,14.80
2023-02-24T19:33:01.934Z,15.88
2023-02-24T19:35:48.642Z,14.50
2023-02-24T19:38:34.098Z,18.95
2023-02-24T19:41:19.899Z,10.05
2023-02-24T19:44:05.449Z,11.73
2023-02-24T19:46:50.919Z,13.13
2023-02-24T19:49:36.299Z,7.70
2023-02-24T19:52:21.695Z,10.27
2023-02-24T19:55:10.181Z,17.17
2023-02-24T19:57:55.534Z,13.48
2023-02-24T20:00:40.696Z,8.88
2023-02-24T20:03:28.287Z,10.18
2023-02-24T20:06:36.821Z,7.18
2023-02-24T20:09:22.164Z,11.52
2023-02-24T20:12:07.422Z,11.50
2023-02-24T20:14:52.822Z,11.82
2023-02-24T20:17:38.134Z,13.88
2023-02-24T20:20:23.694Z,10.18
2023-02-24T20:23:09.043Z,16.60
2023-02-24T20:25:56.316Z,14.40
2023-02-24T20:28:42.790Z,11.50
2023-02-24T20:31:28.505Z,17.02
2023-02-24T20:34:16.494Z,14.40
2023-02-24T20:37:01.907Z,13.95
2023-02-24T20:39:47.076Z,7.85
2023-02-24T20:42:32.439Z,5.65
2023-02-24T20:45:17.797Z,10.45
2023-02-24T20:48:03.895Z,8.85
2023-02-24T20:50:49.620Z,8.52
2023-02-24T20:53:54.268Z,9.75
2023-02-24T20:56:43.716Z,11.02
2023-02-24T20:59:29.238Z,7.78
2023-02-24T21:02:14.443Z,6.53
2023-02-24T21:05:00.045Z,7.82
2023-02-24T21:07:45.972Z,8.02
2023-02-24T21:10:31.341Z,5.63
2023-02-24T21:13:20.115Z,9.25
2023-02-24T21:16:06.859Z,6.22
2023-02-24T21:18:53.154Z,9.25
2023-02-24T21:21:38.531Z,7.30
2023-02-24T21:24:25.369Z,4.95
2023-02-24T21:27:11.895Z,9.60
2023-02-24T21:29:56.976Z,9.48
2023-02-24T21:32:42.838Z,9.32
2023-02-24T21:35:28.670Z,13.10
2023-02-24T21:38:14.086Z,12.93
2023-02-24T21:41:03.797Z,14.52
2023-02-24T21:43:54.736Z,13.43
2023-02-24T21:46:45.339Z,12.95
2023-02-24T21:49:30.716Z,9.50
2023-02-24T21:52:16.146Z,11.18
2023-02-24T21:55:02.197Z,13.50
2023-02-24T21:57:47.885Z,16.90
2023-02-24T22:00:33.152Z,12.98
2023-02-24T22:03:18.370Z,16.58
2023-02-24T22:06:03.903Z,17.80
2023-02-24T22:08:48.909Z,11.65
2023-02-24T22:11:38.646Z,19.33
2023-02-24T22:14:23.734Z,12.60
2023-02-24T22:17:09.098Z,16.63
2023-02-24T22:19:56.146Z,22.90
2023-02-24T22:22:42.560Z,17.20
2023-02-24T22:25:28.116Z,17.65
2023-02-24T22:28:13.615Z,17.90
2023-02-24T22:30:59.121Z,16.33
2023-02-24T22:33:46.068Z,20.10
2023-02-24T22:36:33.918Z,15.68
2023-02-24T22:39:19.108Z,17.10
2023-02-24T22:42:05.051Z,23.02
2023-02-24T22:44:50.046Z,14.65
2023-02-24T22:47:35.565Z,14.07
2023-02-24T22:50:23.306Z,17.42
2023-02-24T22:53:08.788Z,17.90
2023-02-24T22:55:54.964Z,10.82
2023-02-24T22:58:40.730Z,16.52
2023-02-24T23:01:29.251Z,14.35
2023-02-24T23:04:16.638Z,12.52
2023-02-24T23:07:02.618Z,14.55
2023-02-24T23:09:52.730Z,12.05
2023-02-24T23:12:38.362Z,14.30
2023-02-24T23:15:23.927Z,9.90
2023-02-24T23:18:09.370Z,9.25
2023-02-24T23:21:03.354Z,11.27
2023-02-24T23:23:49.971Z,10.20
2023-02-24T23:26:42.279Z,8.10
2023-02-24T23:29:27.720Z,8.10
2023-02-24T23:32:13.500Z,7.28
2023-02-24T23:34:59.249Z,6.50
2023-02-24T23:37:44.898Z,7.38
2023-02-24T23:40:41.273Z,10.68
2023-02-24T23:43:33.717Z,7.60
2023-02-24T23:46:19.235Z,9.88
2023-02-24T23:49:05.615Z,9.32
2023-02-24T23:51:51.298Z,8.40
2023-02-24T23:54:36.851Z,8.88
2023-02-24T23:57:22.458Z,6.55
